sensor_id;sensor_type;location;lat;lon;timestamp;P1;durP1;ratioP1;P2;durP2;ratioP2
76978;SDS011;65911;47.502;19.148;2023-06-14T00:01:35;3.80;;;2.53;;
76978;SDS011;65911;47.502;19.148;2023-06-14T00:04:37;5.07;;;2.80;;
76978;SDS011;65911;47.502;19.148;2023-06-14T00:07:41;5.40;;;2.90;;
76978;SDS011;65911;47.502;19.148;2023-06-14T00:10:50;5.43;;;2.78;;
76978;SDS011;65911;47.502;19.148;2023-06-14T00:13:52;5.78;;;2.70;;
76978;SDS011;65911;47.502;19.148;2023-06-14T00:16:55;4.67;;;3.20;;
76978;SDS011;65911;47.502;19.148;2023-06-14T00:20:01;4.13;;;2.97;;
76978;SDS011;65911;47.502;19.148;2023-06-14T00:23:06;5.03;;;3.05;;
76978;SDS011;65911;47.502;19.148;2023-06-14T00:26:09;4.35;;;2.70;;
76978;SDS011;65911;47.502;19.148;2023-06-14T00:29:15;5.82;;;3.00;;
76978;SDS011;65911;47.502;19.148;2023-06-14T00:32:18;6.75;;;3.00;;
76978;SDS011;65911;47.502;19.148;2023-06-14T00:35:20;4.35;;;3.20;;
76978;SDS011;65911;47.502;19.148;2023-06-14T00:38:23;5.27;;;2.97;;
76978;SDS011;65911;47.502;19.148;2023-06-14T00:41:25;5.93;;;3.03;;
76978;SDS011;65911;47.502;19.148;2023-06-14T00:44:27;4.88;;;3.15;;
76978;SDS011;65911;47.502;19.148;2023-06-14T00:47:30;7.13;;;3.33;;
76978;SDS011;65911;47.502;19.148;2023-06-14T00:50:32;5.47;;;3.00;;
76978;SDS011;65911;47.502;19.148;2023-06-14T00:53:35;5.53;;;3.30;;
76978;SDS011;65911;47.502;19.148;2023-06-14T00:56:38;6.72;;;3.63;;
76978;SDS011;65911;47.502;19.148;2023-06-14T00:59:45;5.18;;;3.08;;
76978;SDS011;65911;47.502;19.148;2023-06-14T01:02:51;5.05;;;3.40;;
76978;SDS011;65911;47.502;19.148;2023-06-14T01:05:58;5.20;;;3.75;;
76978;SDS011;65911;47.502;19.148;2023-06-14T01:09:09;5.20;;;3.37;;
76978;SDS011;65911;47.502;19.148;2023-06-14T01:12:21;5.95;;;3.60;;
76978;SDS011;65911;47.502;19.148;2023-06-14T01:15:34;5.78;;;3.50;;
76978;SDS011;65911;47.502;19.148;2023-06-14T01:18:37;4.73;;;3.50;;
76978;SDS011;65911;47.502;19.148;2023-06-14T01:21:39;5.43;;;3.65;;
76978;SDS011;65911;47.502;19.148;2023-06-14T01:24:44;5.70;;;3.28;;
76978;SDS011;65911;47.502;19.148;2023-06-14T01:27:48;5.30;;;3.60;;
76978;SDS011;65911;47.502;19.148;2023-06-14T01:30:52;6.13;;;3.80;;
76978;SDS011;65911;47.502;19.148;2023-06-14T01:33:57;6.05;;;3.70;;
76978;SDS011;65911;47.502;19.148;2023-06-14T01:37:00;6.45;;;3.83;;
76978;SDS011;65911;47.502;19.148;2023-06-14T01:40:03;6.67;;;3.60;;
76978;SDS011;65911;47.502;19.148;2023-06-14T01:43:09;6.55;;;4.13;;
76978;SDS011;65911;47.502;19.148;2023-06-14T01:46:13;7.05;;;3.90;;
76978;SDS011;65911;47.502;19.148;2023-06-14T01:49:16;7.37;;;4.37;;
76978;SDS011;65911;47.502;19.148;2023-06-14T01:52:19;5.85;;;3.90;;
76978;SDS011;65911;47.502;19.148;2023-06-14T01:55:21;6.40;;;4.05;;
76978;SDS011;65911;47.502;19.148;2023-06-14T01:58:23;6.45;;;4.10;;
76978;SDS011;65911;47.502;19.148;2023-06-14T02:01:26;8.57;;;4.40;;
76978;SDS011;65911;47.502;19.148;2023-06-14T02:04:28;6.78;;;4.40;;
76978;SDS011;65911;47.502;19.148;2023-06-14T02:07:31;6.88;;;4.53;;
76978;SDS011;65911;47.502;19.148;2023-06-14T02:10:33;6.83;;;4.33;;
76978;SDS011;65911;47.502;19.148;2023-06-14T02:13:37;6.35;;;4.18;;
76978;SDS011;65911;47.502;19.148;2023-06-14T02:16:40;6.30;;;3.97;;
76978;SDS011;65911;47.502;19.148;2023-06-14T02:19:42;6.10;;;4.67;;
76978;SDS011;65911;47.502;19.148;2023-06-14T02:22:45;7.32;;;4.78;;
76978;SDS011;65911;47.502;19.148;2023-06-14T02:25:47;7.50;;;4.47;;
76978;SDS011;65911;47.502;19.148;2023-06-14T02:28:49;6.95;;;4.20;;
76978;SDS011;65911;47.502;19.148;2023-06-14T02:31:52;8.25;;;4.60;;
76978;SDS011;65911;47.502;19.148;2023-06-14T02:34:55;6.60;;;4.40;;
76978;SDS011;65911;47.502;19.148;2023-06-14T02:37:59;6.80;;;4.70;;
76978;SDS011;65911;47.502;19.148;2023-06-14T02:41:01;6.63;;;3.87;;
76978;SDS011;65911;47.502;19.148;2023-06-14T02:44:03;6.25;;;4.30;;
76978;SDS011;65911;47.502;19.148;2023-06-14T02:47:06;6.65;;;4.38;;
76978;SDS011;65911;47.502;19.148;2023-06-14T02:50:09;6.10;;;4.13;;
76978;SDS011;65911;47.502;19.148;2023-06-14T02:53:11;6.70;;;4.43;;
76978;SDS011;65911;47.502;19.148;2023-06-14T02:56:14;6.47;;;4.55;;
76978;SDS011;65911;47.502;19.148;2023-06-14T02:59:20;6.43;;;4.38;;
76978;SDS011;65911;47.502;19.148;2023-06-14T03:02:23;8.05;;;5.10;;
76978;SDS011;65911;47.502;19.148;2023-06-14T03:05:25;9.00;;;4.55;;
76978;SDS011;65911;47.502;19.148;2023-06-14T03:08:30;6.93;;;4.95;;
76978;SDS011;65911;47.502;19.148;2023-06-14T03:11:36;6.93;;;4.67;;
76978;SDS011;65911;47.502;19.148;2023-06-14T03:14:39;8.00;;;4.80;;
76978;SDS011;65911;47.502;19.148;2023-06-14T03:17:43;7.70;;;4.50;;
76978;SDS011;65911;47.502;19.148;2023-06-14T03:20:49;6.37;;;4.20;;
76978;SDS011;65911;47.502;19.148;2023-06-14T03:23:53;8.32;;;4.70;;
76978;SDS011;65911;47.502;19.148;2023-06-14T03:26:55;8.10;;;4.57;;
76978;SDS011;65911;47.502;19.148;2023-06-14T03:30:00;7.20;;;4.60;;
76978;SDS011;65911;47.502;19.148;2023-06-14T03:33:04;6.75;;;4.57;;
76978;SDS011;65911;47.502;19.148;2023-06-14T03:36:11;5.75;;;4.30;;
76978;SDS011;65911;47.502;19.148;2023-06-14T03:39:15;6.55;;;3.95;;
76978;SDS011;65911;47.502;19.148;2023-06-14T03:42:17;9.70;;;4.37;;
76978;SDS011;65911;47.502;19.148;2023-06-14T03:45:21;7.32;;;4.63;;
76978;SDS011;65911;47.502;19.148;2023-06-14T03:48:23;7.85;;;4.32;;
76978;SDS011;65911;47.502;19.148;2023-06-14T03:51:26;6.70;;;4.57;;
76978;SDS011;65911;47.502;19.148;2023-06-14T03:54:28;6.20;;;4.20;;
76978;SDS011;65911;47.502;19.148;2023-06-14T03:57:51;6.72;;;4.28;;
76978;SDS011;65911;47.502;19.148;2023-06-14T04:00:54;7.93;;;4.55;;
76978;SDS011;65911;47.502;19.148;2023-06-14T04:03:56;7.28;;;4.70;;
76978;SDS011;65911;47.502;19.148;2023-06-14T04:07:00;5.65;;;4.05;;
76978;SDS011;65911;47.502;19.148;2023-06-14T04:10:07;7.85;;;3.97;;
76978;SDS011;65911;47.502;19.148;2023-06-14T04:13:10;6.57;;;4.17;;
76978;SDS011;65911;47.502;19.148;2023-06-14T04:16:15;6.53;;;4.30;;
76978;SDS011;65911;47.502;19.148;2023-06-14T04:19:17;6.97;;;4.13;;
76978;SDS011;65911;47.502;19.148;2023-06-14T04:22:20;5.07;;;3.73;;
76978;SDS011;65911;47.502;19.148;2023-06-14T04:25:22;7.60;;;4.30;;
76978;SDS011;65911;47.502;19.148;2023-06-14T04:28:27;6.38;;;4.43;;
76978;SDS011;65911;47.502;19.148;2023-06-14T04:31:32;6.53;;;4.25;;
76978;SDS011;65911;47.502;19.148;2023-06-14T04:34:42;5.70;;;4.28;;
76978;SDS011;65911;47.502;19.148;2023-06-14T04:37:46;8.63;;;4.13;;
76978;SDS011;65911;47.502;19.148;2023-06-14T04:40:48;6.35;;;4.20;;
76978;SDS011;65911;47.502;19.148;2023-06-14T04:43:53;7.97;;;4.40;;
76978;SDS011;65911;47.502;19.148;2023-06-14T04:46:59;7.55;;;4.65;;
76978;SDS011;65911;47.502;19.148;2023-06-14T04:50:02;7.45;;;4.53;;
76978;SDS011;65911;47.502;19.148;2023-06-14T04:53:07;7.73;;;4.13;;
76978;SDS011;65911;47.502;19.148;2023-06-14T04:56:10;5.95;;;3.95;;
76978;SDS011;65911;47.502;19.148;2023-06-14T04:59:13;10.25;;;4.35;;
76978;SDS011;65911;47.502;19.148;2023-06-14T05:02:16;7.30;;;4.60;;
76978;SDS011;65911;47.502;19.148;2023-06-14T05:05:18;6.97;;;4.18;;
76978;SDS011;65911;47.502;19.148;2023-06-14T05:08:24;6.93;;;4.43;;
76978;SDS011;65911;47.502;19.148;2023-06-14T05:11:28;7.40;;;4.45;;
76978;SDS011;65911;47.502;19.148;2023-06-14T05:14:30;7.93;;;4.57;;
76978;SDS011;65911;47.502;19.148;2023-06-14T05:17:33;6.32;;;4.10;;
76978;SDS011;65911;47.502;19.148;2023-06-14T05:20:38;7.85;;;4.30;;
76978;SDS011;65911;47.502;19.148;2023-06-14T05:23:40;8.00;;;4.63;;
76978;SDS011;65911;47.502;19.148;2023-06-14T05:26:42;5.65;;;4.07;;
76978;SDS011;65911;47.502;19.148;2023-06-14T05:29:44;6.60;;;3.80;;
76978;SDS011;65911;47.502;19.148;2023-06-14T05:32:47;5.80;;;3.88;;
76978;SDS011;65911;47.502;19.148;2023-06-14T05:35:49;6.03;;;3.97;;
76978;SDS011;65911;47.502;19.148;2023-06-14T05:38:51;7.25;;;4.65;;
76978;SDS011;65911;47.502;19.148;2023-06-14T05:42:00;7.82;;;4.65;;
76978;SDS011;65911;47.502;19.148;2023-06-14T05:45:02;7.53;;;4.40;;
76978;SDS011;65911;47.502;19.148;2023-06-14T05:48:04;5.70;;;4.20;;
76978;SDS011;65911;47.502;19.148;2023-06-14T05:51:07;7.32;;;4.47;;
76978;SDS011;65911;47.502;19.148;2023-06-14T05:54:11;5.93;;;4.33;;
76978;SDS011;65911;47.502;19.148;2023-06-14T05:57:14;6.25;;;3.90;;
76978;SDS011;65911;47.502;19.148;2023-06-14T06:00:16;6.88;;;4.03;;
76978;SDS011;65911;47.502;19.148;2023-06-14T06:03:20;5.80;;;3.97;;
76978;SDS011;65911;47.502;19.148;2023-06-14T06:06:23;6.63;;;3.88;;
76978;SDS011;65911;47.502;19.148;2023-06-14T06:09:26;7.35;;;4.10;;
76978;SDS011;65911;47.502;19.148;2023-06-14T06:12:31;6.72;;;3.88;;
76978;SDS011;65911;47.502;19.148;2023-06-14T06:15:35;5.20;;;3.50;;
76978;SDS011;65911;47.502;19.148;2023-06-14T06:18:41;4.97;;;3.40;;
76978;SDS011;65911;47.502;19.148;2023-06-14T06:21:46;5.13;;;3.35;;
76978;SDS011;65911;47.502;19.148;2023-06-14T06:24:48;5.57;;;3.70;;
76978;SDS011;65911;47.502;19.148;2023-06-14T06:27:52;6.07;;;3.90;;
76978;SDS011;65911;47.502;19.148;2023-06-14T06:30:55;4.47;;;2.92;;
76978;SDS011;65911;47.502;19.148;2023-06-14T06:33:57;5.22;;;3.28;;
76978;SDS011;65911;47.502;19.148;2023-06-14T06:37:00;5.38;;;3.05;;
76978;SDS011;65911;47.502;19.148;2023-06-14T06:40:04;5.10;;;3.42;;
76978;SDS011;65911;47.502;19.148;2023-06-14T06:43:08;5.93;;;3.60;;
76978;SDS011;65911;47.502;19.148;2023-06-14T06:46:20;5.63;;;3.30;;
76978;SDS011;65911;47.502;19.148;2023-06-14T06:49:22;6.90;;;3.50;;
76978;SDS011;65911;47.502;19.148;2023-06-14T06:52:25;5.22;;;3.00;;
76978;SDS011;65911;47.502;19.148;2023-06-14T06:55:27;4.60;;;3.10;;
76978;SDS011;65911;47.502;19.148;2023-06-14T06:58:35;5.18;;;2.95;;
76978;SDS011;65911;47.502;19.148;2023-06-14T07:01:44;4.88;;;3.58;;
76978;SDS011;65911;47.502;19.148;2023-06-14T07:04:47;6.95;;;3.45;;
76978;SDS011;65911;47.502;19.148;2023-06-14T07:08:18;6.00;;;2.78;;
76978;SDS011;65911;47.502;19.148;2023-06-14T07:11:42;5.97;;;3.10;;
76978;SDS011;65911;47.502;19.148;2023-06-14T07:14:48;4.72;;;2.80;;
76978;SDS011;65911;47.502;19.148;2023-06-14T07:17:54;4.13;;;2.77;;
76978;SDS011;65911;47.502;19.148;2023-06-14T07:21:06;4.38;;;2.72;;
76978;SDS011;65911;47.502;19.148;2023-06-14T07:24:08;5.72;;;2.65;;
76978;SDS011;65911;47.502;19.148;2023-06-14T07:27:18;4.30;;;3.07;;
76978;SDS011;65911;47.502;19.148;2023-06-14T07:30:40;4.88;;;2.60;;
76978;SDS011;65911;47.502;19.148;2023-06-14T07:33:51;8.23;;;3.22;;
76978;SDS011;65911;47.502;19.148;2023-06-14T07:36:54;6.38;;;3.22;;
76978;SDS011;65911;47.502;19.148;2023-06-14T07:40:00;7.40;;;2.88;;
76978;SDS011;65911;47.502;19.148;2023-06-14T07:43:18;5.05;;;2.90;;
76978;SDS011;65911;47.502;19.148;2023-06-14T07:46:27;4.38;;;2.78;;
76978;SDS011;65911;47.502;19.148;2023-06-14T07:49:32;6.63;;;2.90;;
76978;SDS011;65911;47.502;19.148;2023-06-14T07:52:38;5.22;;;3.00;;
76978;SDS011;65911;47.502;19.148;2023-06-14T07:55:41;4.65;;;3.15;;
76978;SDS011;65911;47.502;19.148;2023-06-14T07:58:54;4.60;;;2.77;;
76978;SDS011;65911;47.502;19.148;2023-06-14T08:02:00;4.38;;;2.78;;
76978;SDS011;65911;47.502;19.148;2023-06-14T08:05:06;5.32;;;3.03;;
76978;SDS011;65911;47.502;19.148;2023-06-14T08:08:17;5.25;;;2.80;;
76978;SDS011;65911;47.502;19.148;2023-06-14T08:11:30;5.40;;;2.83;;
76978;SDS011;65911;47.502;19.148;2023-06-14T08:14:42;5.15;;;2.83;;
76978;SDS011;65911;47.502;19.148;2023-06-14T08:17:46;3.90;;;2.78;;
76978;SDS011;65911;47.502;19.148;2023-06-14T08:20:48;3.63;;;2.70;;
76978;SDS011;65911;47.502;19.148;2023-06-14T08:23:53;5.05;;;2.95;;
76978;SDS011;65911;47.502;19.148;2023-06-14T08:26:55;4.75;;;2.60;;
76978;SDS011;65911;47.502;19.148;2023-06-14T08:29:58;3.77;;;2.50;;
76978;SDS011;65911;47.502;19.148;2023-06-14T08:33:01;5.60;;;2.75;;
76978;SDS011;65911;47.502;19.148;2023-06-14T08:36:17;5.03;;;2.58;;
76978;SDS011;65911;47.502;19.148;2023-06-14T08:39:19;4.20;;;2.78;;
76978;SDS011;65911;47.502;19.148;2023-06-14T08:42:24;5.85;;;2.80;;
76978;SDS011;65911;47.502;19.148;2023-06-14T08:45:37;5.82;;;3.00;;
76978;SDS011;65911;47.502;19.148;2023-06-14T08:48:40;4.60;;;2.95;;
76978;SDS011;65911;47.502;19.148;2023-06-14T08:51:50;6.97;;;2.90;;
76978;SDS011;65911;47.502;19.148;2023-06-14T08:54:59;4.15;;;2.70;;
76978;SDS011;65911;47.502;19.148;2023-06-14T08:58:06;4.80;;;2.75;;
76978;SDS011;65911;47.502;19.148;2023-06-14T09:01:15;4.20;;;2.57;;
76978;SDS011;65911;47.502;19.148;2023-06-14T09:04:21;4.25;;;2.53;;
76978;SDS011;65911;47.502;19.148;2023-06-14T09:07:26;5.07;;;2.70;;
76978;SDS011;65911;47.502;19.148;2023-06-14T09:10:29;5.95;;;3.05;;
76978;SDS011;65911;47.502;19.148;2023-06-14T09:13:36;4.22;;;2.72;;
76978;SDS011;65911;47.502;19.148;2023-06-14T09:16:51;6.07;;;2.65;;
76978;SDS011;65911;47.502;19.148;2023-06-14T09:20:15;4.43;;;2.67;;
76978;SDS011;65911;47.502;19.148;2023-06-14T09:23:30;3.73;;;2.40;;
76978;SDS011;65911;47.502;19.148;2023-06-14T09:26:52;6.50;;;2.70;;
76978;SDS011;65911;47.502;19.148;2023-06-14T09:29:57;6.65;;;2.65;;
76978;SDS011;65911;47.502;19.148;2023-06-14T09:32:59;4.73;;;2.20;;
76978;SDS011;65911;47.502;19.148;2023-06-14T09:36:03;6.63;;;2.53;;
76978;SDS011;65911;47.502;19.148;2023-06-14T09:39:06;6.22;;;2.72;;
76978;SDS011;65911;47.502;19.148;2023-06-14T09:42:19;5.28;;;2.60;;
76978;SDS011;65911;47.502;19.148;2023-06-14T09:45:22;5.28;;;2.03;;
76978;SDS011;65911;47.502;19.148;2023-06-14T09:48:26;5.47;;;2.42;;
76978;SDS011;65911;47.502;19.148;2023-06-14T09:51:31;5.68;;;2.42;;
76978;SDS011;65911;47.502;19.148;2023-06-14T09:54:40;3.30;;;1.90;;
76978;SDS011;65911;47.502;19.148;2023-06-14T09:57:49;4.10;;;2.53;;
76978;SDS011;65911;47.502;19.148;2023-06-14T10:00:52;4.43;;;2.50;;
76978;SDS011;65911;47.502;19.148;2023-06-14T10:04:06;6.73;;;2.53;;
76978;SDS011;65911;47.502;19.148;2023-06-14T10:07:14;5.13;;;2.42;;
76978;SDS011;65911;47.502;19.148;2023-06-14T10:10:21;6.82;;;2.08;;
76978;SDS011;65911;47.502;19.148;2023-06-14T10:13:25;6.68;;;2.72;;
76978;SDS011;65911;47.502;19.148;2023-06-14T10:16:32;11.30;;;2.40;;
76978;SDS011;65911;47.502;19.148;2023-06-14T10:19:37;5.38;;;2.00;;
76978;SDS011;65911;47.502;19.148;2023-06-14T10:22:49;4.40;;;2.30;;
76978;SDS011;65911;47.502;19.148;2023-06-14T10:25:57;5.70;;;1.97;;
76978;SDS011;65911;47.502;19.148;2023-06-14T10:29:08;3.30;;;1.80;;
76978;SDS011;65911;47.502;19.148;2023-06-14T10:32:13;4.78;;;1.75;;
76978;SDS011;65911;47.502;19.148;2023-06-14T10:35:16;3.70;;;2.00;;
76978;SDS011;65911;47.502;19.148;2023-06-14T10:38:19;6.95;;;2.00;;
76978;SDS011;65911;47.502;19.148;2023-06-14T10:41:41;5.47;;;1.70;;
76978;SDS011;65911;47.502;19.148;2023-06-14T10:44:54;3.03;;;1.67;;
76978;SDS011;65911;47.502;19.148;2023-06-14T10:48:01;5.80;;;2.10;;
76978;SDS011;65911;47.502;19.148;2023-06-14T10:51:06;3.78;;;2.05;;
76978;SDS011;65911;47.502;19.148;2023-06-14T10:54:08;2.67;;;1.52;;
76978;SDS011;65911;47.502;19.148;2023-06-14T10:57:14;3.03;;;1.70;;
76978;SDS011;65911;47.502;19.148;2023-06-14T11:00:17;3.60;;;1.85;;
76978;SDS011;65911;47.502;19.148;2023-06-14T11:07:43;2.57;;;1.60;;
76978;SDS011;65911;47.502;19.148;2023-06-14T11:10:50;2.53;;;1.55;;
76978;SDS011;65911;47.502;19.148;2023-06-14T11:13:53;3.97;;;1.80;;
76978;SDS011;65911;47.502;19.148;2023-06-14T11:16:55;3.97;;;1.70;;
76978;SDS011;65911;47.502;19.148;2023-06-14T11:20:07;3.50;;;2.30;;
76978;SDS011;65911;47.502;19.148;2023-06-14T11:23:19;5.45;;;2.28;;
76978;SDS011;65911;47.502;19.148;2023-06-14T11:26:25;4.47;;;2.50;;
76978;SDS011;65911;47.502;19.148;2023-06-14T11:29:29;4.47;;;2.07;;
76978;SDS011;65911;47.502;19.148;2023-06-14T11:32:31;3.70;;;2.25;;
76978;SDS011;65911;47.502;19.148;2023-06-14T11:35:33;6.60;;;2.22;;
76978;SDS011;65911;47.502;19.148;2023-06-14T11:38:36;3.00;;;2.20;;
76978;SDS011;65911;47.502;19.148;2023-06-14T11:41:40;4.13;;;2.13;;
76978;SDS011;65911;47.502;19.148;2023-06-14T11:44:46;3.72;;;2.10;;
76978;SDS011;65911;47.502;19.148;2023-06-14T11:47:54;2.97;;;2.03;;
76978;SDS011;65911;47.502;19.148;2023-06-14T11:50:58;3.57;;;1.73;;
76978;SDS011;65911;47.502;19.148;2023-06-14T11:54:04;6.03;;;2.25;;
76978;SDS011;65911;47.502;19.148;2023-06-14T11:57:07;3.40;;;1.95;;
76978;SDS011;65911;47.502;19.148;2023-06-14T12:00:10;2.87;;;2.00;;
76978;SDS011;65911;47.502;19.148;2023-06-14T12:03:14;3.70;;;2.20;;
76978;SDS011;65911;47.502;19.148;2023-06-14T12:06:17;4.47;;;2.20;;
76978;SDS011;65911;47.502;19.148;2023-06-14T12:09:29;3.47;;;2.08;;
76978;SDS011;65911;47.502;19.148;2023-06-14T12:12:34;3.88;;;2.50;;
76978;SDS011;65911;47.502;19.148;2023-06-14T12:15:37;4.13;;;1.80;;
76978;SDS011;65911;47.502;19.148;2023-06-14T12:18:40;4.20;;;1.73;;
76978;SDS011;65911;47.502;19.148;2023-06-14T12:21:46;4.90;;;2.00;;
76978;SDS011;65911;47.502;19.148;2023-06-14T12:24:53;3.90;;;2.15;;
76978;SDS011;65911;47.502;19.148;2023-06-14T12:27:55;4.07;;;2.10;;
76978;SDS011;65911;47.502;19.148;2023-06-14T12:30:58;3.47;;;2.00;;
76978;SDS011;65911;47.502;19.148;2023-06-14T12:34:00;6.00;;;1.85;;
76978;SDS011;65911;47.502;19.148;2023-06-14T12:37:03;4.97;;;1.98;;
76978;SDS011;65911;47.502;19.148;2023-06-14T12:40:06;6.30;;;1.98;;
76978;SDS011;65911;47.502;19.148;2023-06-14T12:43:09;6.68;;;2.38;;
76978;SDS011;65911;47.502;19.148;2023-06-14T12:46:11;6.15;;;2.28;;
76978;SDS011;65911;47.502;19.148;2023-06-14T12:49:14;3.13;;;1.98;;
76978;SDS011;65911;47.502;19.148;2023-06-14T12:52:16;5.77;;;2.27;;
76978;SDS011;65911;47.502;19.148;2023-06-14T12:55:18;4.95;;;2.13;;
76978;SDS011;65911;47.502;19.148;2023-06-14T12:58:21;4.22;;;1.65;;
76978;SDS011;65911;47.502;19.148;2023-06-14T13:01:25;6.27;;;2.07;;
76978;SDS011;65911;47.502;19.148;2023-06-14T13:04:28;6.68;;;2.60;;
76978;SDS011;65911;47.502;19.148;2023-06-14T13:07:31;5.15;;;2.10;;
76978;SDS011;65911;47.502;19.148;2023-06-14T13:10:33;2.80;;;1.98;;
76978;SDS011;65911;47.502;19.148;2023-06-14T13:13:36;3.83;;;1.80;;
76978;SDS011;65911;47.502;19.148;2023-06-14T13:16:38;3.83;;;1.80;;
76978;SDS011;65911;47.502;19.148;2023-06-14T13:19:40;4.90;;;2.05;;
76978;SDS011;65911;47.502;19.148;2023-06-14T13:22:44;2.53;;;1.33;;
76978;SDS011;65911;47.502;19.148;2023-06-14T13:25:46;2.85;;;1.80;;
76978;SDS011;65911;47.502;19.148;2023-06-14T13:28:48;4.82;;;1.88;;
76978;SDS011;65911;47.502;19.148;2023-06-14T13:31:51;5.37;;;1.90;;
76978;SDS011;65911;47.502;19.148;2023-06-14T13:34:53;2.90;;;1.65;;
76978;SDS011;65911;47.502;19.148;2023-06-14T13:37:55;2.85;;;1.77;;
76978;SDS011;65911;47.502;19.148;2023-06-14T13:40:57;3.17;;;1.83;;
76978;SDS011;65911;47.502;19.148;2023-06-14T13:44:00;3.45;;;1.83;;
76978;SDS011;65911;47.502;19.148;2023-06-14T13:47:03;4.20;;;1.67;;
76978;SDS011;65911;47.502;19.148;2023-06-14T13:50:05;5.43;;;1.55;;
76978;SDS011;65911;47.502;19.148;2023-06-14T13:53:08;3.67;;;1.47;;
76978;SDS011;65911;47.502;19.148;2023-06-14T13:56:10;2.25;;;1.65;;
76978;SDS011;65911;47.502;19.148;2023-06-14T13:59:13;3.08;;;1.55;;
76978;SDS011;65911;47.502;19.148;2023-06-14T14:02:15;3.10;;;1.70;;
76978;SDS011;65911;47.502;19.148;2023-06-14T14:05:17;3.55;;;1.83;;
76978;SDS011;65911;47.502;19.148;2023-06-14T14:08:19;3.85;;;1.60;;
76978;SDS011;65911;47.502;19.148;2023-06-14T14:11:22;4.63;;;1.70;;
76978;SDS011;65911;47.502;19.148;2023-06-14T14:14:24;2.38;;;1.70;;
76978;SDS011;65911;47.502;19.148;2023-06-14T14:17:26;3.45;;;1.65;;
76978;SDS011;65911;47.502;19.148;2023-06-14T14:20:32;2.95;;;1.80;;
76978;SDS011;65911;47.502;19.148;2023-06-14T14:23:34;2.07;;;1.30;;
76978;SDS011;65911;47.502;19.148;2023-06-14T14:26:36;3.20;;;1.88;;
76978;SDS011;65911;47.502;19.148;2023-06-14T14:29:39;2.63;;;1.40;;
76978;SDS011;65911;47.502;19.148;2023-06-14T14:32:41;3.10;;;1.73;;
76978;SDS011;65911;47.502;19.148;2023-06-14T14:35:44;3.53;;;1.63;;
76978;SDS011;65911;47.502;19.148;2023-06-14T14:38:49;4.68;;;1.70;;
76978;SDS011;65911;47.502;19.148;2023-06-14T14:41:53;3.38;;;1.67;;
76978;SDS011;65911;47.502;19.148;2023-06-14T14:44:55;6.85;;;1.92;;
76978;SDS011;65911;47.502;19.148;2023-06-14T14:47:58;2.70;;;1.70;;
76978;SDS011;65911;47.502;19.148;2023-06-14T14:51:00;3.35;;;1.60;;
76978;SDS011;65911;47.502;19.148;2023-06-14T14:54:02;3.00;;;1.80;;
76978;SDS011;65911;47.502;19.148;2023-06-14T14:57:05;4.35;;;1.77;;
76978;SDS011;65911;47.502;19.148;2023-06-14T15:00:08;2.42;;;1.88;;
76978;SDS011;65911;47.502;19.148;2023-06-14T15:03:11;3.90;;;1.90;;
76978;SDS011;65911;47.502;19.148;2023-06-14T15:06:14;3.30;;;1.50;;
76978;SDS011;65911;47.502;19.148;2023-06-14T15:09:16;3.75;;;1.70;;
76978;SDS011;65911;47.502;19.148;2023-06-14T15:12:18;4.95;;;2.00;;
76978;SDS011;65911;47.502;19.148;2023-06-14T15:15:22;5.85;;;1.88;;
76978;SDS011;65911;47.502;19.148;2023-06-14T15:18:24;4.43;;;1.75;;
76978;SDS011;65911;47.502;19.148;2023-06-14T15:21:26;2.90;;;1.80;;
76978;SDS011;65911;47.502;19.148;2023-06-14T15:24:29;3.20;;;2.10;;
76978;SDS011;65911;47.502;19.148;2023-06-14T15:27:44;2.65;;;1.80;;
76978;SDS011;65911;47.502;19.148;2023-06-14T15:30:47;5.30;;;2.00;;
76978;SDS011;65911;47.502;19.148;2023-06-14T15:33:49;5.40;;;2.20;;
76978;SDS011;65911;47.502;19.148;2023-06-14T15:36:51;3.20;;;1.75;;
76978;SDS011;65911;47.502;19.148;2023-06-14T15:39:53;3.10;;;1.98;;
76978;SDS011;65911;47.502;19.148;2023-06-14T15:42:56;2.70;;;1.63;;
76978;SDS011;65911;47.502;19.148;2023-06-14T15:45:58;3.28;;;1.58;;
76978;SDS011;65911;47.502;19.148;2023-06-14T15:49:00;4.20;;;1.80;;
76978;SDS011;65911;47.502;19.148;2023-06-14T15:52:02;3.13;;;1.48;;
76978;SDS011;65911;47.502;19.148;2023-06-14T15:55:05;2.40;;;1.40;;
76978;SDS011;65911;47.502;19.148;2023-06-14T15:58:08;3.00;;;1.73;;
76978;SDS011;65911;47.502;19.148;2023-06-14T16:01:10;4.20;;;1.58;;
76978;SDS011;65911;47.502;19.148;2023-06-14T16:04:12;4.80;;;1.60;;
76978;SDS011;65911;47.502;19.148;2023-06-14T16:07:14;3.95;;;1.50;;
76978;SDS011;65911;47.502;19.148;2023-06-14T16:10:17;3.13;;;1.63;;
76978;SDS011;65911;47.502;19.148;2023-06-14T16:13:20;2.33;;;1.48;;
76978;SDS011;65911;47.502;19.148;2023-06-14T16:16:22;2.85;;;1.77;;
76978;SDS011;65911;47.502;19.148;2023-06-14T16:19:24;3.25;;;1.55;;
76978;SDS011;65911;47.502;19.148;2023-06-14T16:22:27;3.63;;;1.77;;
76978;SDS011;65911;47.502;19.148;2023-06-14T16:25:29;2.73;;;1.47;;
76978;SDS011;65911;47.502;19.148;2023-06-14T16:28:32;2.80;;;1.92;;
76978;SDS011;65911;47.502;19.148;2023-06-14T16:31:34;3.67;;;1.50;;
76978;SDS011;65911;47.502;19.148;2023-06-14T16:34:36;4.13;;;1.70;;
76978;SDS011;65911;47.502;19.148;2023-06-14T16:37:39;2.85;;;1.80;;
76978;SDS011;65911;47.502;19.148;2023-06-14T16:40:41;3.40;;;1.48;;
76978;SDS011;65911;47.502;19.148;2023-06-14T16:43:43;3.13;;;1.70;;
76978;SDS011;65911;47.502;19.148;2023-06-14T16:46:46;5.82;;;1.80;;
76978;SDS011;65911;47.502;19.148;2023-06-14T16:49:48;2.17;;;1.50;;
76978;SDS011;65911;47.502;19.148;2023-06-14T16:52:51;3.80;;;1.90;;
76978;SDS011;65911;47.502;19.148;2023-06-14T16:55:53;4.63;;;1.50;;
76978;SDS011;65911;47.502;19.148;2023-06-14T16:58:56;2.38;;;1.55;;
76978;SDS011;65911;47.502;19.148;2023-06-14T17:02:02;2.67;;;1.40;;
76978;SDS011;65911;47.502;19.148;2023-06-14T17:05:07;2.53;;;1.63;;
76978;SDS011;65911;47.502;19.148;2023-06-14T17:08:09;3.83;;;1.23;;
76978;SDS011;65911;47.502;19.148;2023-06-14T17:11:12;2.97;;;1.50;;
76978;SDS011;65911;47.502;19.148;2023-06-14T17:14:14;2.70;;;1.55;;
76978;SDS011;65911;47.502;19.148;2023-06-14T17:17:16;2.10;;;1.40;;
76978;SDS011;65911;47.502;19.148;2023-06-14T17:20:18;6.30;;;1.50;;
76978;SDS011;65911;47.502;19.148;2023-06-14T17:23:23;5.40;;;1.60;;
76978;SDS011;65911;47.502;19.148;2023-06-14T17:26:25;4.23;;;1.60;;
76978;SDS011;65911;47.502;19.148;2023-06-14T17:29:28;5.78;;;1.60;;
76978;SDS011;65911;47.502;19.148;2023-06-14T17:32:30;3.88;;;1.52;;
76978;SDS011;65911;47.502;19.148;2023-06-14T17:35:33;4.80;;;1.80;;
76978;SDS011;65911;47.502;19.148;2023-06-14T17:38:35;4.93;;;1.60;;
76978;SDS011;65911;47.502;19.148;2023-06-14T17:41:37;5.53;;;1.83;;
76978;SDS011;65911;47.502;19.148;2023-06-14T17:44:40;4.50;;;1.70;;
76978;SDS011;65911;47.502;19.148;2023-06-14T17:47:42;5.93;;;1.75;;
76978;SDS011;65911;47.502;19.148;2023-06-14T17:50:44;2.83;;;1.60;;
76978;SDS011;65911;47.502;19.148;2023-06-14T17:53:46;5.38;;;1.70;;
76978;SDS011;65911;47.502;19.148;2023-06-14T17:56:49;2.83;;;1.50;;
76978;SDS011;65911;47.502;19.148;2023-06-14T17:59:51;3.40;;;1.70;;
76978;SDS011;65911;47.502;19.148;2023-06-14T18:02:54;2.30;;;1.40;;
76978;SDS011;65911;47.502;19.148;2023-06-14T18:06:00;3.23;;;1.57;;
76978;SDS011;65911;47.502;19.148;2023-06-14T18:09:02;4.93;;;1.60;;
76978;SDS011;65911;47.502;19.148;2023-06-14T18:12:05;2.95;;;1.60;;
76978;SDS011;65911;47.502;19.148;2023-06-14T18:15:11;2.97;;;1.70;;
76978;SDS011;65911;47.502;19.148;2023-06-14T18:18:13;2.55;;;1.52;;